createdAt,value
2023-03-02T00:01:45.510Z,9.00
2023-03-02T00:04:21.358Z,9.30
2023-03-02T00:06:49.359Z,6.40
2023-03-02T00:09:21.561Z,6.90
2023-03-02T00:11:51.302Z,7.50
2023-03-02T00:14:19.277Z,7.70
2023-03-02T00:17:21.406Z,7.50
2023-03-02T00:20:10.964Z,8.20
2023-03-02T00:22:44.455Z,7.30
2023-03-02T00:25:13.516Z,7.10
2023-03-02T00:27:44.336Z,6.10
2023-03-02T00:30:14.470Z,6.60
2023-03-02T00:32:45.581Z,6.80
2023-03-02T00:35:21.584Z,8.70
2023-03-02T00:37:58.288Z,8.60
2023-03-02T00:40:29.285Z,9.70
2023-03-02T00:42:57.842Z,10.00
2023-03-02T00:45:28.611Z,10.70
2023-03-02T00:47:58.399Z,8.20
2023-03-02T00:50:30.878Z,7.50
2023-03-02T00:53:05.907Z,7.20
2023-03-02T00:55:38.758Z,6.90
2023-03-02T00:58:11.164Z,6.70
2023-03-02T01:00:43.078Z,7.00
2023-03-02T01:03:14.432Z,7.10
2023-03-02T01:05:47.668Z,7.30
2023-03-02T01:08:17.766Z,9.10
2023-03-02T01:10:45.663Z,8.90
2023-03-02T01:13:17.654Z,8.30
2023-03-02T01:15:46.360Z,7.50
2023-03-02T01:18:16.559Z,7.70
2023-03-02T01:20:43.963Z,8.70
2023-03-02T01:23:14.145Z,6.90
2023-03-02T01:25:42.614Z,6.70
2023-03-02T01:28:11.990Z,8.00
2023-03-02T01:30:43.532Z,7.20
2023-03-02T01:33:18.378Z,6.80
2023-03-02T01:35:48.781Z,7.30
2023-03-02T01:38:19.795Z,5.60
2023-03-02T01:40:47.823Z,6.50
2023-03-02T01:43:19.878Z,5.80
2023-03-02T01:45:57.805Z,6.30
2023-03-02T01:48:49.176Z,5.50
2023-03-02T01:51:23.188Z,5.00
2023-03-02T01:54:00.601Z,7.40
2023-03-02T01:56:31.014Z,5.30
2023-03-02T02:01:42.607Z,6.80
2023-03-02T02:04:12.843Z,5.50
2023-03-02T02:06:46.523Z,6.00
2023-03-02T02:09:17.736Z,5.70
2023-03-02T02:11:47.907Z,5.00
2023-03-02T02:14:17.890Z,5.50
2023-03-02T02:16:51.875Z,5.80
2023-03-02T02:19:28.345Z,5.50
2023-03-02T02:21:57.232Z,5.30
2023-03-02T02:25:04.323Z,5.40
2023-03-02T02:27:34.179Z,5.50
2023-03-02T02:30:03.678Z,5.50
2023-03-02T02:32:37.074Z,5.30
2023-03-02T02:35:19.282Z,5.20
2023-03-02T02:37:53.699Z,6.30
2023-03-02T02:40:37.803Z,4.90
2023-03-02T02:43:06.873Z,5.80
2023-03-02T02:45:38.172Z,5.40
2023-03-02T02:48:09.081Z,4.90
2023-03-02T02:50:38.243Z,5.40
2023-03-02T02:53:18.594Z,5.80
2023-03-02T02:55:49.109Z,6.80
2023-03-02T02:58:58.979Z,6.40
2023-03-02T03:01:33.542Z,6.20
2023-03-02T03:04:02.910Z,5.60
2023-03-02T03:06:42.845Z,5.90
2023-03-02T03:09:13.368Z,6.40
2023-03-02T03:11:52.247Z,7.90
2023-03-02T03:14:26.273Z,6.60
2023-03-02T03:17:13.177Z,5.40
2023-03-02T03:19:53.193Z,6.70
2023-03-02T03:22:23.478Z,6.90
2023-03-02T03:24:54.545Z,7.10
2023-03-02T03:27:23.679Z,6.20
2023-03-02T03:29:56.016Z,6.80
2023-03-02T03:32:33.904Z,5.80
2023-03-02T03:35:03.028Z,6.30
2023-03-02T03:37:33.833Z,6.60
2023-03-02T03:40:09.198Z,6.90
2023-03-02T03:43:01.090Z,7.50
2023-03-02T03:45:30.488Z,6.40
2023-03-02T03:48:01.308Z,8.20
2023-03-02T03:50:32.312Z,7.30
2023-03-02T03:53:08.513Z,5.70
2023-03-02T03:55:37.977Z,6.60
2023-03-02T03:58:19.556Z,6.90
2023-03-02T04:00:48.604Z,7.40
2023-03-02T04:03:21.171Z,7.60
2023-03-02T04:05:49.124Z,7.10
2023-03-02T04:08:24.670Z,7.40
2023-03-02T04:10:59.568Z,7.40
2023-03-02T04:13:55.856Z,6.90
2023-03-02T04:16:26.668Z,7.70
2023-03-02T04:18:59.990Z,7.10
2023-03-02T04:21:29.410Z,6.50
2023-03-02T04:23:57.339Z,7.40
2023-03-02T04:26:34.076Z,6.00
2023-03-02T04:29:02.819Z,8.10
2023-03-02T04:31:58.141Z,7.40
2023-03-02T04:34:30.602Z,7.00
2023-03-02T04:37:02.689Z,7.40
2023-03-02T04:39:35.020Z,7.20
2023-03-02T04:44:41.281Z,6.10
2023-03-02T04:47:13.672Z,7.10
2023-03-02T04:49:45.022Z,6.60
2023-03-02T04:52:13.405Z,6.70
2023-03-02T04:54:43.832Z,5.60
2023-03-02T04:57:13.316Z,5.90
2023-03-02T04:59:41.653Z,6.10
2023-03-02T05:02:10.446Z,7.50
2023-03-02T05:04:41.648Z,7.00
2023-03-02T05:07:15.849Z,7.40
2023-03-02T05:09:45.125Z,9.70
2023-03-02T05:12:18.718Z,7.70
2023-03-02T05:14:45.922Z,9.10
2023-03-02T05:17:19.950Z,8.10
2023-03-02T05:19:50.774Z,7.10
2023-03-02T05:22:19.411Z,6.70
2023-03-02T05:24:48.350Z,6.30
2023-03-02T05:27:23.476Z,7.50
2023-03-02T05:29:56.700Z,7.30
2023-03-02T05:32:24.418Z,6.50
2023-03-02T05:34:52.134Z,7.10
2023-03-02T05:37:21.336Z,6.40
2023-03-02T05:39:49.973Z,6.60
2023-03-02T05:42:23.409Z,6.90
2023-03-02T05:44:56.488Z,7.10
2023-03-02T05:47:55.202Z,7.20
2023-03-02T05:50:28.309Z,7.30
2023-03-02T05:52:59.582Z,7.70
2023-03-02T05:55:36.564Z,7.90
2023-03-02T05:58:08.473Z,6.80
2023-03-02T06:00:40.602Z,7.40
2023-03-02T06:03:10.969Z,6.30
2023-03-02T06:05:39.624Z,7.00
2023-03-02T06:08:15.234Z,5.80
2023-03-02T06:10:46.447Z,7.10
2023-03-02T06:13:15.485Z,9.60
2023-03-02T06:16:09.511Z,13.40
2023-03-02T06:21:10.496Z,10.80
2023-03-02T06:23:44.543Z,10.50
2023-03-02T06:26:14.927Z,8.10
2023-03-02T06:28:53.444Z,6.60
2023-03-02T06:31:24.430Z,7.00
2023-03-02T06:33:58.814Z,6.00
2023-03-02T06:36:52.699Z,5.60
2023-03-02T06:39:26.580Z,6.90
2023-03-02T06:41:55.937Z,5.60
2023-03-02T06:44:25.306Z,6.60
2023-03-02T06:47:18.889Z,5.90
2023-03-02T06:52:24.341Z,6.50
2023-03-02T06:54:52.068Z,6.30
2023-03-02T06:57:19.364Z,5.60
2023-03-02T07:03:39.310Z,4.70
2023-03-02T07:06:08.160Z,4.30
2023-03-02T07:08:37.906Z,4.60
2023-03-02T07:11:13.411Z,4.40
2023-03-02T07:13:47.741Z,4.00
2023-03-02T07:16:23.276Z,4.10
2023-03-02T07:18:57.460Z,4.20
2023-03-02T07:21:26.508Z,3.80
2023-03-02T07:24:03.628Z,4.50
2023-03-02T07:26:35.891Z,10.30
2023-03-02T07:29:12.900Z,4.60
2023-03-02T07:31:44.408Z,4.80
2023-03-02T07:34:21.685Z,5.40
2023-03-02T07:36:51.815Z,4.50
2023-03-02T07:39:29.609Z,3.60
2023-03-02T07:42:04.548Z,5.50
2023-03-02T07:44:36.236Z,5.10
2023-03-02T07:47:05.833Z,4.60
2023-03-02T07:49:40.001Z,4.10
2023-03-02T07:52:10.498Z,4.60
2023-03-02T07:54:45.870Z,4.00
2023-03-02T07:57:16.868Z,5.60
2023-03-02T07:59:49.529Z,2.90
2023-03-02T08:02:53.992Z,3.80
2023-03-02T08:05:36.098Z,3.30
2023-03-02T08:08:07.903Z,3.60
2023-03-02T08:10:39.372Z,3.60
2023-03-02T08:13:10.096Z,4.60
2023-03-02T08:15:47.629Z,5.40
2023-03-02T08:18:20.418Z,3.10
2023-03-02T08:20:50.298Z,4.60
2023-03-02T08:23:22.016Z,4.30
2023-03-02T08:25:59.147Z,3.90
2023-03-02T08:28:30.432Z,3.30
2023-03-02T08:31:00.642Z,3.90
2023-03-02T08:33:32.164Z,3.90
2023-03-02T08:36:42.094Z,4.80
2023-03-02T08:39:13.123Z,4.10
2023-03-02T08:41:43.078Z,3.50
2023-03-02T08:44:12.001Z,4.30
2023-03-02T08:46:44.096Z,3.50
2023-03-02T08:49:15.541Z,3.20
2023-03-02T08:51:44.865Z,3.20
2023-03-02T08:54:17.144Z,3.00
2023-03-02T08:56:46.693Z,2.90
2023-03-02T08:59:22.717Z,3.10
2023-03-02T09:01:51.123Z,3.00
2023-03-02T09:04:29.279Z,5.30
2023-03-02T09:07:00.457Z,2.70
2023-03-02T09:09:33.071Z,3.10
2023-03-02T09:14:57.998Z,2.50
2023-03-02T09:17:31.886Z,2.80
2023-03-02T09:20:06.305Z,2.90
2023-03-02T09:22:38.783Z,2.80
2023-03-02T09:25:14.231Z,3.20
2023-03-02T09:27:43.652Z,2.90
2023-03-02T09:30:18.251Z,3.30
2023-03-02T09:32:50.662Z,2.40
2023-03-02T09:35:25.982Z,2.80
2023-03-02T09:37:59.025Z,2.70
2023-03-02T09:43:16.454Z,2.40
2023-03-02T09:45:58.331Z,3.10
2023-03-02T09:48:55.407Z,1.90
2023-03-02T09:51:49.799Z,3.10
2023-03-02T09:54:21.242Z,1.90
2023-03-02T09:56:58.005Z,2.80
2023-03-02T09:59:39.950Z,2.10
2023-03-02T10:02:53.066Z,2.60
2023-03-02T10:06:17.123Z,2.80
2023-03-02T10:08:52.538Z,2.70
2023-03-02T10:12:17.451Z,2.20
2023-03-02T10:15:27.754Z,1.80
2023-03-02T10:18:26.278Z,2.00
2023-03-02T10:20:55.875Z,2.70
2023-03-02T10:23:36.288Z,3.40
2023-03-02T10:26:25.961Z,2.60
2023-03-02T10:29:15.675Z,2.30
2023-03-02T10:31:48.960Z,2.20
2023-03-02T10:34:21.958Z,1.80
2023-03-02T10:37:03.250Z,2.00
2023-03-02T10:39:34.027Z,2.20
2023-03-02T10:42:16.000Z,2.50
2023-03-02T10:47:49.363Z,3.60
2023-03-02T10:50:32.762Z,2.70
2023-03-02T10:53:05.348Z,2.30
2023-03-02T10:55:44.589Z,2.80
2023-03-02T10:58:45.730Z,2.60
2023-03-02T11:01:18.542Z,2.30
2023-03-02T11:04:00.047Z,2.40
2023-03-02T11:06:54.428Z,2.00
2023-03-02T11:09:27.574Z,2.20
2023-03-02T11:11:58.990Z,2.60
2023-03-02T11:14:33.585Z,2.20
2023-03-02T11:17:04.205Z,2.30
2023-03-02T11:19:35.649Z,2.80
2023-03-02T11:22:12.275Z,2.50
2023-03-02T11:24:50.070Z,3.00
2023-03-02T11:27:30.804Z,2.40
2023-03-02T11:30:26.521Z,2.20
2023-03-02T11:33:08.354Z,2.10
2023-03-02T11:35:45.276Z,2.70
2023-03-02T11:38:33.398Z,2.10
2023-03-02T11:41:29.141Z,2.30
2023-03-02T11:43:59.588Z,2.50
2023-03-02T11:46:33.258Z,2.90
2023-03-02T11:49:06.588Z,3.10
2023-03-02T11:51:47.148Z,2.40
2023-03-02T11:55:13.737Z,3.10
2023-03-02T11:57:55.151Z,2.40
2023-03-02T12:00:35.506Z,2.10
2023-03-02T12:03:28.688Z,2.60
2023-03-02T12:06:29.536Z,2.40
2023-03-02T12:09:40.039Z,1.60
2023-03-02T12:12:41.129Z,1.80
2023-03-02T12:15:38.409Z,1.80
2023-03-02T12:18:22.856Z,1.80
2023-03-02T12:21:19.431Z,2.00
2023-03-02T12:23:51.491Z,2.30
2023-03-02T12:26:28.559Z,2.60
2023-03-02T12:29:00.866Z,2.30
2023-03-02T12:31:52.708Z,3.10
2023-03-02T12:34:35.274Z,2.30
2023-03-02T12:37:18.364Z,3.00
2023-03-02T12:40:26.228Z,2.80
2023-03-02T12:42:59.713Z,1.90
2023-03-02T12:45:38.430Z,3.20
2023-03-02T12:48:23.116Z,1.90
2023-03-02T12:51:16.757Z,2.50
2023-03-02T12:53:48.885Z,2.60
2023-03-02T12:56:28.490Z,2.90
2023-03-02T12:59:00.293Z,3.20
2023-03-02T13:01:36.823Z,3.60
2023-03-02T13:04:05.143Z,3.00
2023-03-02T13:06:36.117Z,2.80
2023-03-02T13:09:14.441Z,2.40
2023-03-02T13:11:49.162Z,2.30
2023-03-02T13:14:25.741Z,2.50
2023-03-02T13:17:05.504Z,2.60
2023-03-02T13:19:38.482Z,2.10
2023-03-02T13:22:11.840Z,2.80
2023-03-02T13:25:25.288Z,3.10
2023-03-02T13:28:28.220Z,2.50
2023-03-02T13:31:32.620Z,2.40
2023-03-02T13:34:06.742Z,2.50
2023-03-02T13:36:38.690Z,2.20
2023-03-02T13:42:36.720Z,4.10
2023-03-02T13:45:32.590Z,2.60
2023-03-02T13:48:30.384Z,2.60
2023-03-02T13:51:16.703Z,2.20
2023-03-02T13:54:28.846Z,3.30
2023-03-02T13:57:04.235Z,3.00
2023-03-02T14:00:04.707Z,2.60
2023-03-02T14:02:49.972Z,2.90
2023-03-02T14:05:35.297Z,3.60
2023-03-02T14:08:07.099Z,2.90
2023-03-02T14:10:42.510Z,3.40
2023-03-02T14:13:16.542Z,3.50
2023-03-02T14:15:52.410Z,2.80
2023-03-02T14:18:41.269Z,4.70
2023-03-02T14:21:15.723Z,4.00
2023-03-02T14:23:48.868Z,2.90
2023-03-02T14:26:42.648Z,3.30
2023-03-02T14:29:28.442Z,3.00
2023-03-02T14:32:04.076Z,3.70
2023-03-02T14:34:35.497Z,4.10
2023-03-02T14:37:12.919Z,3.90
2023-03-02T14:40:08.030Z,3.50
2023-03-02T14:42:41.597Z,3.30
2023-03-02T14:45:10.796Z,4.10
2023-03-02T14:47:47.901Z,3.50
2023-03-02T14:50:16.793Z,3.70
2023-03-02T14:52:50.156Z,4.50
2023-03-02T14:55:33.070Z,4.60
2023-03-02T14:58:35.595Z,4.20
2023-03-02T15:01:05.674Z,3.80
2023-03-02T15:03:40.154Z,4.00
2023-03-02T15:06:30.217Z,3.50
2023-03-02T15:09:05.102Z,3.30
2023-03-02T15:11:42.440Z,4.30
2023-03-02T15:14:22.373Z,5.20
2023-03-02T15:16:51.407Z,4.70
2023-03-02T15:19:24.551Z,5.70
2023-03-02T15:22:01.523Z,5.00
2023-03-02T15:24:33.267Z,5.60
2023-03-02T15:27:04.927Z,7.40
2023-03-02T15:29:59.852Z,7.60
2023-03-02T15:32:29.895Z,9.20
2023-03-02T15:34:59.506Z,6.30
2023-03-02T15:37:30.295Z,7.40
2023-03-02T15:40:07.671Z,7.40
2023-03-02T15:42:37.992Z,7.00
2023-03-02T15:45:13.802Z,6.90
2023-03-02T15:48:10.037Z,7.00
2023-03-02T15:50:39.592Z,6.20
2023-03-02T15:53:10.366Z,6.40
2023-03-02T15:55:47.807Z,7.70
2023-03-02T15:58:18.848Z,11.50
2023-03-02T16:00:53.063Z,11.30
2023-03-02T16:03:24.819Z,13.70
2023-03-02T16:06:02.754Z,7.00
2023-03-02T16:08:32.179Z,7.40
2023-03-02T16:11:08.353Z,7.90
2023-03-02T16:13:39.176Z,7.40
2023-03-02T16:16:11.777Z,7.40
2023-03-02T16:18:44.089Z,5.50
2023-03-02T16:21:17.102Z,6.90
2023-03-02T16:23:44.587Z,6.50
2023-03-02T16:26:19.000Z,5.30
2023-03-02T16:28:52.096Z,5.80
2023-03-02T16:31:19.328Z,5.40
2023-03-02T16:33:50.127Z,4.60
2023-03-02T16:36:21.775Z,7.40
2023-03-02T16:38:52.110Z,5.80
2023-03-02T16:41:23.178Z,5.10
2023-03-02T16:43:56.056Z,5.80
2023-03-02T16:46:34.300Z,5.70
2023-03-02T16:49:24.170Z,6.30
2023-03-02T16:51:58.878Z,6.20
2023-03-02T16:54:31.511Z,5.20
2023-03-02T16:57:02.031Z,5.80
2023-03-02T16:59:33.163Z,7.50
2023-03-02T17:02:00.275Z,6.70
2023-03-02T17:04:34.949Z,6.50
2023-03-02T17:07:09.752Z,6.50
2023-03-02T17:09:41.584Z,6.40
2023-03-02T17:12:20.358Z,6.70
2023-03-02T17:14:50.993Z,6.40
2023-03-02T17:17:25.299Z,6.70
2023-03-02T17:19:57.343Z,6.20
2023-03-02T23:06:32.915Z,10.90
2023-03-02T23:09:05.610Z,10.70
2023-03-02T23:11:38.286Z,11.70
2023-03-02T23:14:44.130Z,9.70
2023-03-02T23:17:15.699Z,11.70
2023-03-02T23:19:50.011Z,11.80
2023-03-02T23:22:29.824Z,12.10
2023-03-02T23:25:03.997Z,17.50
2023-03-02T23:27:33.269Z,15.30
2023-03-02T23:30:39.857Z,16.70
2023-03-02T23:33:11.055Z,15.20
2023-03-02T23:35:44.952Z,13.10
2023-03-02T23:38:48.311Z,14.90
2023-03-02T23:41:22.912Z,12.90
2023-03-02T23:43:53.136Z,12.70
2023-03-02T23:46:25.002Z,12.50
2023-03-02T23:48:58.699Z,11.10
2023-03-02T23:51:28.142Z,12.70
2023-03-02T23:54:04.597Z,12.30
2023-03-02T23:56:37.063Z,11.60
2023-03-02T23:59:06.101Z,16.80
